sensor_id;sensor_type;location;lat;lon;timestamp;P1;durP1;ratioP1;P2;durP2;ratioP2
32790;SDS011;19143;59.322;14.502;2023-06-22T00:00:40;10.10;;;9.10;;
32790;SDS011;19143;59.322;14.502;2023-06-22T00:03:07;10.43;;;9.33;;
32790;SDS011;19143;59.322;14.502;2023-06-22T00:05:35;11.30;;;8.90;;
32790;SDS011;19143;59.322;14.502;2023-06-22T00:08:02;10.43;;;9.33;;
32790;SDS011;19143;59.322;14.502;2023-06-22T00:10:29;13.73;;;8.73;;
32790;SDS011;19143;59.322;14.502;2023-06-22T00:12:57;9.93;;;8.93;;
32790;SDS011;19143;59.322;14.502;2023-06-22T00:15:24;11.00;;;9.00;;
32790;SDS011;19143;59.322;14.502;2023-06-22T00:17:50;9.67;;;8.63;;
32790;SDS011;19143;59.322;14.502;2023-06-22T00:20:17;10.57;;;8.83;;
32790;SDS011;19143;59.322;14.502;2023-06-22T00:22:45;10.27;;;8.30;;
32790;SDS011;19143;59.322;14.502;2023-06-22T00:25:13;9.83;;;8.83;;
32790;SDS011;19143;59.322;14.502;2023-06-22T00:27:40;9.93;;;8.93;;
32790;SDS011;19143;59.322;14.502;2023-06-22T00:30:08;9.53;;;8.57;;
32790;SDS011;19143;59.322;14.502;2023-06-22T00:32:35;12.00;;;8.50;;
32790;SDS011;19143;59.322;14.502;2023-06-22T00:35:02;9.80;;;8.40;;
32790;SDS011;19143;59.322;14.502;2023-06-22T00:37:29;8.57;;;7.77;;
32790;SDS011;19143;59.322;14.502;2023-06-22T00:39:56;12.00;;;8.37;;
32790;SDS011;19143;59.322;14.502;2023-06-22T00:42:22;10.40;;;8.20;;
32790;SDS011;19143;59.322;14.502;2023-06-22T00:44:49;10.53;;;8.63;;
32790;SDS011;19143;59.322;14.502;2023-06-22T00:47:17;8.43;;;7.73;;
32790;SDS011;19143;59.322;14.502;2023-06-22T00:49:44;8.23;;;7.43;;
32790;SDS011;19143;59.322;14.502;2023-06-22T00:52:11;8.50;;;7.70;;
32790;SDS011;19143;59.322;14.502;2023-06-22T00:54:45;8.70;;;7.13;;
32790;SDS011;19143;59.322;14.502;2023-06-22T00:57:14;8.77;;;7.87;;
32790;SDS011;19143;59.322;14.502;2023-06-22T00:59:41;7.73;;;6.93;;
32790;SDS011;19143;59.322;14.502;2023-06-22T01:02:08;7.90;;;7.20;;
32790;SDS011;19143;59.322;14.502;2023-06-22T01:04:38;10.87;;;7.40;;
32790;SDS011;19143;59.322;14.502;2023-06-22T01:07:07;8.20;;;7.40;;
32790;SDS011;19143;59.322;14.502;2023-06-22T01:09:39;9.47;;;7.60;;
32790;SDS011;19143;59.322;14.502;2023-06-22T01:12:11;8.47;;;7.67;;
32790;SDS011;19143;59.322;14.502;2023-06-22T01:14:39;10.97;;;8.00;;
32790;SDS011;19143;59.322;14.502;2023-06-22T01:17:08;9.30;;;8.23;;
32790;SDS011;19143;59.322;14.502;2023-06-22T01:19:38;9.47;;;8.10;;
32790;SDS011;19143;59.322;14.502;2023-06-22T01:22:06;8.67;;;7.83;;
32790;SDS011;19143;59.322;14.502;2023-06-22T01:24:40;9.13;;;8.17;;
32790;SDS011;19143;59.322;14.502;2023-06-22T01:27:09;8.20;;;7.40;;
32790;SDS011;19143;59.322;14.502;2023-06-22T01:29:43;11.10;;;7.47;;
32790;SDS011;19143;59.322;14.502;2023-06-22T01:32:10;10.57;;;7.90;;
32790;SDS011;19143;59.322;14.502;2023-06-22T01:34:37;9.00;;;7.97;;
32790;SDS011;19143;59.322;14.502;2023-06-22T01:37:05;12.00;;;8.20;;
32790;SDS011;19143;59.322;14.502;2023-06-22T01:39:38;14.03;;;8.00;;
32790;SDS011;19143;59.322;14.502;2023-06-22T01:42:05;8.47;;;7.67;;
32790;SDS011;19143;59.322;14.502;2023-06-22T01:44:32;14.10;;;7.57;;
32790;SDS011;19143;59.322;14.502;2023-06-22T01:47:01;8.70;;;7.80;;
32790;SDS011;19143;59.322;14.502;2023-06-22T01:49:28;12.90;;;7.73;;
32790;SDS011;19143;59.322;14.502;2023-06-22T01:51:54;11.07;;;7.50;;
32790;SDS011;19143;59.322;14.502;2023-06-22T01:54:21;11.10;;;7.50;;
32790;SDS011;19143;59.322;14.502;2023-06-22T01:56:48;10.83;;;7.53;;
32790;SDS011;19143;59.322;14.502;2023-06-22T01:59:17;13.73;;;7.07;;
32790;SDS011;19143;59.322;14.502;2023-06-22T02:01:48;12.60;;;6.70;;
32790;SDS011;19143;59.322;14.502;2023-06-22T02:04:20;13.70;;;7.73;;
32790;SDS011;19143;59.322;14.502;2023-06-22T02:06:56;10.30;;;6.63;;
32790;SDS011;19143;59.322;14.502;2023-06-22T02:09:24;11.23;;;6.80;;
32790;SDS011;19143;59.322;14.502;2023-06-22T02:11:55;16.87;;;7.83;;
32790;SDS011;19143;59.322;14.502;2023-06-22T02:14:22;10.87;;;6.67;;
32790;SDS011;19143;59.322;14.502;2023-06-22T02:16:49;10.60;;;6.90;;
32790;SDS011;19143;59.322;14.502;2023-06-22T02:19:16;14.37;;;7.23;;
32790;SDS011;19143;59.322;14.502;2023-06-22T02:21:45;10.43;;;6.70;;
32790;SDS011;19143;59.322;14.502;2023-06-22T02:24:11;12.90;;;6.80;;
32790;SDS011;19143;59.322;14.502;2023-06-22T02:26:38;12.40;;;6.87;;
32790;SDS011;19143;59.322;14.502;2023-06-22T02:29:07;23.53;;;7.07;;
32790;SDS011;19143;59.322;14.502;2023-06-22T02:31:34;11.00;;;6.23;;
32790;SDS011;19143;59.322;14.502;2023-06-22T02:34:00;9.60;;;6.10;;
32790;SDS011;19143;59.322;14.502;2023-06-22T02:36:27;18.23;;;6.60;;
32790;SDS011;19143;59.322;14.502;2023-06-22T02:38:57;15.33;;;6.27;;
32790;SDS011;19143;59.322;14.502;2023-06-22T02:41:26;14.90;;;6.33;;
32790;SDS011;19143;59.322;14.502;2023-06-22T02:43:53;13.07;;;7.13;;
32790;SDS011;19143;59.322;14.502;2023-06-22T02:46:19;9.97;;;6.37;;
32790;SDS011;19143;59.322;14.502;2023-06-22T02:48:46;13.47;;;6.07;;
32790;SDS011;19143;59.322;14.502;2023-06-22T02:51:13;15.23;;;6.53;;
32790;SDS011;19143;59.322;14.502;2023-06-22T02:53:40;13.93;;;6.37;;
32790;SDS011;19143;59.322;14.502;2023-06-22T02:56:11;9.67;;;6.03;;
32790;SDS011;19143;59.322;14.502;2023-06-22T02:58:38;8.57;;;5.70;;
32790;SDS011;19143;59.322;14.502;2023-06-22T03:01:04;10.17;;;5.90;;
32790;SDS011;19143;59.322;14.502;2023-06-22T03:03:31;13.03;;;5.70;;
32790;SDS011;19143;59.322;14.502;2023-06-22T03:05:58;12.63;;;6.37;;
32790;SDS011;19143;59.322;14.502;2023-06-22T03:08:26;14.33;;;5.80;;
32790;SDS011;19143;59.322;14.502;2023-06-22T03:10:52;8.50;;;6.17;;
32790;SDS011;19143;59.322;14.502;2023-06-22T03:13:20;10.17;;;6.07;;
32790;SDS011;19143;59.322;14.502;2023-06-22T03:15:47;11.07;;;5.90;;
32790;SDS011;19143;59.322;14.502;2023-06-22T03:18:13;13.97;;;6.23;;
32790;SDS011;19143;59.322;14.502;2023-06-22T03:20:40;13.20;;;6.37;;
32790;SDS011;19143;59.322;14.502;2023-06-22T03:23:07;9.97;;;5.97;;
32790;SDS011;19143;59.322;14.502;2023-06-22T03:25:34;11.43;;;5.63;;
32790;SDS011;19143;59.322;14.502;2023-06-22T03:28:01;11.40;;;5.73;;
32790;SDS011;19143;59.322;14.502;2023-06-22T03:30:29;16.90;;;6.00;;
32790;SDS011;19143;59.322;14.502;2023-06-22T03:32:56;10.73;;;5.77;;
32790;SDS011;19143;59.322;14.502;2023-06-22T03:35:22;10.23;;;5.90;;
32790;SDS011;19143;59.322;14.502;2023-06-22T03:37:49;15.33;;;6.10;;
32790;SDS011;19143;59.322;14.502;2023-06-22T03:40:15;13.53;;;5.57;;
32790;SDS011;19143;59.322;14.502;2023-06-22T03:42:42;11.13;;;5.97;;
32790;SDS011;19143;59.322;14.502;2023-06-22T03:45:09;10.83;;;5.80;;
32790;SDS011;19143;59.322;14.502;2023-06-22T03:47:38;11.83;;;6.17;;
32790;SDS011;19143;59.322;14.502;2023-06-22T03:50:05;9.43;;;5.70;;
32790;SDS011;19143;59.322;14.502;2023-06-22T03:52:31;17.27;;;5.90;;
32790;SDS011;19143;59.322;14.502;2023-06-22T03:54:58;11.83;;;5.90;;
32790;SDS011;19143;59.322;14.502;2023-06-22T03:57:24;12.37;;;5.70;;
32790;SDS011;19143;59.322;14.502;2023-06-22T03:59:51;13.00;;;6.13;;
32790;SDS011;19143;59.322;14.502;2023-06-22T04:02:17;9.40;;;5.83;;
32790;SDS011;19143;59.322;14.502;2023-06-22T04:04:45;17.40;;;6.20;;
32790;SDS011;19143;59.322;14.502;2023-06-22T04:07:12;8.63;;;6.17;;
32790;SDS011;19143;59.322;14.502;2023-06-22T04:09:39;8.87;;;5.43;;
32790;SDS011;19143;59.322;14.502;2023-06-22T04:12:06;12.33;;;5.87;;
32790;SDS011;19143;59.322;14.502;2023-06-22T04:14:32;8.93;;;6.60;;
32790;SDS011;19143;59.322;14.502;2023-06-22T04:16:59;15.17;;;5.97;;
32790;SDS011;19143;59.322;14.502;2023-06-22T04:19:26;10.87;;;6.37;;
32790;SDS011;19143;59.322;14.502;2023-06-22T04:21:54;11.93;;;6.20;;
32790;SDS011;19143;59.322;14.502;2023-06-22T04:24:20;10.50;;;5.87;;
32790;SDS011;19143;59.322;14.502;2023-06-22T04:26:47;11.00;;;5.63;;
32790;SDS011;19143;59.322;14.502;2023-06-22T04:29:14;12.40;;;5.67;;
32790;SDS011;19143;59.322;14.502;2023-06-22T04:31:40;7.57;;;5.17;;
32790;SDS011;19143;59.322;14.502;2023-06-22T04:34:15;13.83;;;6.00;;
32790;SDS011;19143;59.322;14.502;2023-06-22T04:36:42;16.07;;;5.80;;
32790;SDS011;19143;59.322;14.502;2023-06-22T04:39:11;9.67;;;5.33;;
32790;SDS011;19143;59.322;14.502;2023-06-22T04:41:45;13.90;;;5.53;;
32790;SDS011;19143;59.322;14.502;2023-06-22T04:44:12;8.63;;;5.67;;
32790;SDS011;19143;59.322;14.502;2023-06-22T04:46:39;7.07;;;4.60;;
32790;SDS011;19143;59.322;14.502;2023-06-22T04:49:06;8.13;;;5.10;;
32790;SDS011;19143;59.322;14.502;2023-06-22T04:51:34;13.33;;;5.70;;
32790;SDS011;19143;59.322;14.502;2023-06-22T04:54:03;7.60;;;5.03;;
32790;SDS011;19143;59.322;14.502;2023-06-22T04:56:32;14.80;;;5.37;;
32790;SDS011;19143;59.322;14.502;2023-06-22T04:58:59;8.83;;;4.80;;
32790;SDS011;19143;59.322;14.502;2023-06-22T05:01:25;9.83;;;4.90;;
32790;SDS011;19143;59.322;14.502;2023-06-22T05:03:52;6.97;;;4.90;;
32790;SDS011;19143;59.322;14.502;2023-06-22T05:06:20;7.60;;;4.83;;
32790;SDS011;19143;59.322;14.502;2023-06-22T05:08:49;8.97;;;4.40;;
32790;SDS011;19143;59.322;14.502;2023-06-22T05:11:16;6.87;;;4.60;;
32790;SDS011;19143;59.322;14.502;2023-06-22T05:13:44;8.10;;;4.73;;
32790;SDS011;19143;59.322;14.502;2023-06-22T05:16:10;12.30;;;4.80;;
32790;SDS011;19143;59.322;14.502;2023-06-22T05:18:37;10.07;;;4.50;;
32790;SDS011;19143;59.322;14.502;2023-06-22T05:21:04;6.57;;;3.90;;
32790;SDS011;19143;59.322;14.502;2023-06-22T05:23:30;11.20;;;4.43;;
32790;SDS011;19143;59.322;14.502;2023-06-22T05:25:57;6.87;;;4.07;;
32790;SDS011;19143;59.322;14.502;2023-06-22T05:28:23;6.13;;;4.37;;
32790;SDS011;19143;59.322;14.502;2023-06-22T05:30:51;5.10;;;3.93;;
32790;SDS011;19143;59.322;14.502;2023-06-22T05:36:25;5.43;;;4.33;;
32790;SDS011;19143;59.322;14.502;2023-06-22T05:39:10;7.03;;;3.87;;
32790;SDS011;19143;59.322;14.502;2023-06-22T05:41:37;7.30;;;4.03;;
32790;SDS011;19143;59.322;14.502;2023-06-22T05:44:04;8.70;;;3.93;;
32790;SDS011;19143;59.322;14.502;2023-06-22T05:46:32;6.17;;;3.40;;
32790;SDS011;19143;59.322;14.502;2023-06-22T05:48:59;3.67;;;3.37;;
32790;SDS011;19143;59.322;14.502;2023-06-22T05:51:26;8.10;;;3.47;;
32790;SDS011;19143;59.322;14.502;2023-06-22T05:53:52;6.07;;;3.57;;
32790;SDS011;19143;59.322;14.502;2023-06-22T05:56:19;5.10;;;3.50;;
32790;SDS011;19143;59.322;14.502;2023-06-22T05:58:45;7.63;;;3.83;;
32790;SDS011;19143;59.322;14.502;2023-06-22T06:01:12;11.83;;;3.93;;
32790;SDS011;19143;59.322;14.502;2023-06-22T06:03:42;6.90;;;3.80;;
32790;SDS011;19143;59.322;14.502;2023-06-22T06:06:09;3.77;;;3.47;;
32790;SDS011;19143;59.322;14.502;2023-06-22T06:08:39;7.73;;;3.73;;
32790;SDS011;19143;59.322;14.502;2023-06-22T06:11:06;5.43;;;3.33;;
32790;SDS011;19143;59.322;14.502;2023-06-22T06:13:33;6.43;;;3.23;;
32790;SDS011;19143;59.322;14.502;2023-06-22T06:16:00;7.80;;;3.27;;
32790;SDS011;19143;59.322;14.502;2023-06-22T06:18:27;5.37;;;3.80;;
32790;SDS011;19143;59.322;14.502;2023-06-22T06:20:55;5.57;;;3.30;;
32790;SDS011;19143;59.322;14.502;2023-06-22T06:23:21;6.10;;;3.37;;
32790;SDS011;19143;59.322;14.502;2023-06-22T06:25:48;3.83;;;3.13;;
32790;SDS011;19143;59.322;14.502;2023-06-22T06:28:15;8.73;;;3.63;;
32790;SDS011;19143;59.322;14.502;2023-06-22T06:30:41;11.27;;;3.73;;
32790;SDS011;19143;59.322;14.502;2023-06-22T06:33:08;7.20;;;3.60;;
32790;SDS011;19143;59.322;14.502;2023-06-22T06:35:35;9.93;;;3.47;;
32790;SDS011;19143;59.322;14.502;2023-06-22T06:38:05;7.13;;;3.40;;
32790;SDS011;19143;59.322;14.502;2023-06-22T06:40:32;14.23;;;3.77;;
32790;SDS011;19143;59.322;14.502;2023-06-22T06:42:59;6.93;;;3.53;;
32790;SDS011;19143;59.322;14.502;2023-06-22T06:45:25;3.60;;;2.83;;
32790;SDS011;19143;59.322;14.502;2023-06-22T06:47:53;4.93;;;3.20;;
32790;SDS011;19143;59.322;14.502;2023-06-22T06:50:21;6.43;;;3.23;;
32790;SDS011;19143;59.322;14.502;2023-06-22T06:52:48;7.73;;;3.60;;
32790;SDS011;19143;59.322;14.502;2023-06-22T06:55:16;5.57;;;3.27;;
32790;SDS011;19143;59.322;14.502;2023-06-22T06:57:44;11.37;;;3.50;;
32790;SDS011;19143;59.322;14.502;2023-06-22T07:00:13;5.27;;;3.20;;
32790;SDS011;19143;59.322;14.502;2023-06-22T07:02:41;7.13;;;3.33;;
32790;SDS011;19143;59.322;14.502;2023-06-22T07:05:08;4.70;;;2.83;;
32790;SDS011;19143;59.322;14.502;2023-06-22T07:07:35;7.97;;;3.40;;
32790;SDS011;19143;59.322;14.502;2023-06-22T07:10:10;6.57;;;3.43;;
32790;SDS011;19143;59.322;14.502;2023-06-22T07:12:39;5.40;;;3.10;;
32790;SDS011;19143;59.322;14.502;2023-06-22T07:15:08;3.83;;;3.13;;
32790;SDS011;19143;59.322;14.502;2023-06-22T07:17:36;16.60;;;3.63;;
32790;SDS011;19143;59.322;14.502;2023-06-22T07:20:04;3.97;;;3.20;;
32790;SDS011;19143;59.322;14.502;2023-06-22T07:22:35;4.90;;;3.13;;
32790;SDS011;19143;59.322;14.502;2023-06-22T07:25:02;4.50;;;3.13;;
32790;SDS011;19143;59.322;14.502;2023-06-22T07:27:34;7.00;;;3.17;;
32790;SDS011;19143;59.322;14.502;2023-06-22T07:30:05;5.73;;;3.30;;
32790;SDS011;19143;59.322;14.502;2023-06-22T07:32:32;5.27;;;3.40;;
32790;SDS011;19143;59.322;14.502;2023-06-22T07:34:59;3.50;;;3.20;;
32790;SDS011;19143;59.322;14.502;2023-06-22T07:37:26;5.40;;;3.03;;
32790;SDS011;19143;59.322;14.502;2023-06-22T07:39:54;5.20;;;3.10;;
32790;SDS011;19143;59.322;14.502;2023-06-22T07:42:23;7.27;;;3.00;;
32790;SDS011;19143;59.322;14.502;2023-06-22T07:44:50;3.57;;;3.27;;
32790;SDS011;19143;59.322;14.502;2023-06-22T07:47:18;5.63;;;3.20;;
32790;SDS011;19143;59.322;14.502;2023-06-22T07:49:45;8.90;;;3.00;;
32790;SDS011;19143;59.322;14.502;2023-06-22T07:52:12;4.20;;;2.80;;
32790;SDS011;19143;59.322;14.502;2023-06-22T07:54:39;4.33;;;2.87;;
32790;SDS011;19143;59.322;14.502;2023-06-22T07:57:05;4.67;;;3.23;;
32790;SDS011;19143;59.322;14.502;2023-06-22T07:59:32;4.07;;;2.97;;
32790;SDS011;19143;59.322;14.502;2023-06-22T08:01:59;3.07;;;2.80;;
32790;SDS011;19143;59.322;14.502;2023-06-22T08:04:27;6.67;;;3.17;;
32790;SDS011;19143;59.322;14.502;2023-06-22T08:06:54;4.80;;;3.03;;
32790;SDS011;19143;59.322;14.502;2023-06-22T08:09:23;6.70;;;3.30;;
32790;SDS011;19143;59.322;14.502;2023-06-22T08:11:50;2.90;;;2.70;;
32790;SDS011;19143;59.322;14.502;2023-06-22T08:14:16;3.47;;;2.93;;
32790;SDS011;19143;59.322;14.502;2023-06-22T08:16:43;4.60;;;3.00;;
32790;SDS011;19143;59.322;14.502;2023-06-22T08:19:09;3.00;;;2.80;;
32790;SDS011;19143;59.322;14.502;2023-06-22T08:21:37;13.67;;;3.13;;
32790;SDS011;19143;59.322;14.502;2023-06-22T08:24:04;3.53;;;3.00;;
32790;SDS011;19143;59.322;14.502;2023-06-22T08:26:33;7.17;;;3.10;;
32790;SDS011;19143;59.322;14.502;2023-06-22T08:29:01;7.67;;;3.03;;
32790;SDS011;19143;59.322;14.502;2023-06-22T08:31:29;6.53;;;3.20;;
32790;SDS011;19143;59.322;14.502;2023-06-22T08:33:57;4.63;;;2.90;;
32790;SDS011;19143;59.322;14.502;2023-06-22T08:36:23;12.47;;;3.40;;
32790;SDS011;19143;59.322;14.502;2023-06-22T08:38:52;6.13;;;2.70;;
32790;SDS011;19143;59.322;14.502;2023-06-22T08:41:18;3.07;;;2.87;;
32790;SDS011;19143;59.322;14.502;2023-06-22T08:43:45;12.27;;;2.90;;
32790;SDS011;19143;59.322;14.502;2023-06-22T08:46:12;4.63;;;2.73;;
32790;SDS011;19143;59.322;14.502;2023-06-22T08:48:39;5.40;;;3.10;;
32790;SDS011;19143;59.322;14.502;2023-06-22T08:51:05;5.17;;;2.90;;
32790;SDS011;19143;59.322;14.502;2023-06-22T08:53:32;6.10;;;2.60;;
32790;SDS011;19143;59.322;14.502;2023-06-22T08:56:01;4.07;;;2.40;;
32790;SDS011;19143;59.322;14.502;2023-06-22T08:58:29;3.03;;;2.80;;
32790;SDS011;19143;59.322;14.502;2023-06-22T09:00:56;2.70;;;2.40;;
32790;SDS011;19143;59.322;14.502;2023-06-22T09:03:26;6.90;;;3.13;;
32790;SDS011;19143;59.322;14.502;2023-06-22T09:05:53;7.70;;;3.03;;
32790;SDS011;19143;59.322;14.502;2023-06-22T09:08:19;2.87;;;2.67;;
32790;SDS011;19143;59.322;14.502;2023-06-22T09:10:46;8.27;;;2.63;;
32790;SDS011;19143;59.322;14.502;2023-06-22T09:13:14;3.07;;;2.77;;
32790;SDS011;19143;59.322;14.502;2023-06-22T09:15:41;4.30;;;2.60;;
32790;SDS011;19143;59.322;14.502;2023-06-22T09:18:09;3.43;;;2.93;;
32790;SDS011;19143;59.322;14.502;2023-06-22T09:20:36;6.73;;;2.73;;
32790;SDS011;19143;59.322;14.502;2023-06-22T09:23:03;4.17;;;2.80;;
32790;SDS011;19143;59.322;14.502;2023-06-22T09:25:29;2.83;;;2.37;;
32790;SDS011;19143;59.322;14.502;2023-06-22T09:27:56;2.63;;;2.40;;
32790;SDS011;19143;59.322;14.502;2023-06-22T09:30:27;9.03;;;2.87;;
32790;SDS011;19143;59.322;14.502;2023-06-22T09:32:54;7.90;;;2.47;;
32790;SDS011;19143;59.322;14.502;2023-06-22T09:35:21;3.00;;;2.57;;
32790;SDS011;19143;59.322;14.502;2023-06-22T09:37:48;2.77;;;2.30;;
32790;SDS011;19143;59.322;14.502;2023-06-22T09:40:14;3.90;;;2.43;;
32790;SDS011;19143;59.322;14.502;2023-06-22T09:42:42;2.57;;;2.40;;
32790;SDS011;19143;59.322;14.502;2023-06-22T09:45:09;3.37;;;2.57;;
32790;SDS011;19143;59.322;14.502;2023-06-22T09:47:39;2.70;;;2.60;;
32790;SDS011;19143;59.322;14.502;2023-06-22T09:50:07;2.97;;;2.30;;
32790;SDS011;19143;59.322;14.502;2023-06-22T09:52:34;7.37;;;2.90;;
32790;SDS011;19143;59.322;14.502;2023-06-22T09:55:01;3.57;;;2.70;;
32790;SDS011;19143;59.322;14.502;2023-06-22T09:57:28;2.80;;;2.30;;
32790;SDS011;19143;59.322;14.502;2023-06-22T09:59:55;5.13;;;2.97;;
32790;SDS011;19143;59.322;14.502;2023-06-22T10:02:22;2.60;;;2.50;;
32790;SDS011;19143;59.322;14.502;2023-06-22T10:05:09;5.23;;;2.70;;
32790;SDS011;19143;59.322;14.502;2023-06-22T10:07:36;4.03;;;2.60;;
32790;SDS011;19143;59.322;14.502;2023-06-22T10:10:10;5.60;;;3.10;;
32790;SDS011;19143;59.322;14.502;2023-06-22T10:12:42;2.60;;;2.50;;
32790;SDS011;19143;59.322;14.502;2023-06-22T10:15:09;2.70;;;2.50;;
32790;SDS011;19143;59.322;14.502;2023-06-22T10:17:36;4.43;;;2.30;;
32790;SDS011;19143;59.322;14.502;2023-06-22T10:20:03;3.80;;;2.50;;
32790;SDS011;19143;59.322;14.502;2023-06-22T10:22:38;3.23;;;2.30;;
32790;SDS011;19143;59.322;14.502;2023-06-22T10:25:06;2.77;;;2.43;;
32790;SDS011;19143;59.322;14.502;2023-06-22T10:27:33;6.40;;;2.57;;
32790;SDS011;19143;59.322;14.502;2023-06-22T10:29:59;2.50;;;2.30;;
32790;SDS011;19143;59.322;14.502;2023-06-22T10:32:26;5.20;;;2.20;;
32790;SDS011;19143;59.322;14.502;2023-06-22T10:34:54;3.67;;;2.37;;
32790;SDS011;19143;59.322;14.502;2023-06-22T10:37:21;5.03;;;2.60;;
32790;SDS011;19143;59.322;14.502;2023-06-22T10:39:49;9.00;;;2.30;;
32790;SDS011;19143;59.322;14.502;2023-06-22T10:42:15;3.73;;;2.13;;
32790;SDS011;19143;59.322;14.502;2023-06-22T10:44:42;3.57;;;2.57;;
32790;SDS011;19143;59.322;14.502;2023-06-22T10:47:09;2.50;;;2.30;;
32790;SDS011;19143;59.322;14.502;2023-06-22T10:49:37;2.47;;;2.20;;
32790;SDS011;19143;59.322;14.502;2023-06-22T10:52:03;2.27;;;2.17;;
32790;SDS011;19143;59.322;14.502;2023-06-22T10:54:30;2.33;;;2.23;;
32790;SDS011;19143;59.322;14.502;2023-06-22T10:56:59;3.50;;;2.20;;
32790;SDS011;19143;59.322;14.502;2023-06-22T10:59:25;2.40;;;2.30;;
32790;SDS011;19143;59.322;14.502;2023-06-22T11:01:53;4.30;;;2.40;;
32790;SDS011;19143;59.322;14.502;2023-06-22T11:04:20;2.70;;;2.50;;
32790;SDS011;19143;59.322;14.502;2023-06-22T11:06:47;4.27;;;2.63;;
32790;SDS011;19143;59.322;14.502;2023-06-22T11:09:14;3.33;;;2.30;;
32790;SDS011;19143;59.322;14.502;2023-06-22T11:11:44;7.00;;;2.57;;
32790;SDS011;19143;59.322;14.502;2023-06-22T11:14:12;2.60;;;2.50;;
32790;SDS011;19143;59.322;14.502;2023-06-22T11:16:38;4.23;;;2.47;;
32790;SDS011;19143;59.322;14.502;2023-06-22T11:19:05;4.43;;;2.37;;
32790;SDS011;19143;59.322;14.502;2023-06-22T11:21:32;3.17;;;2.63;;
32790;SDS011;19143;59.322;14.502;2023-06-22T11:23:58;4.77;;;2.50;;
32790;SDS011;19143;59.322;14.502;2023-06-22T11:26:26;8.10;;;2.10;;
32790;SDS011;19143;59.322;14.502;2023-06-22T11:28:53;4.27;;;2.13;;
32790;SDS011;19143;59.322;14.502;2023-06-22T11:31:21;2.67;;;2.40;;
32790;SDS011;19143;59.322;14.502;2023-06-22T11:33:47;5.77;;;2.10;;
32790;SDS011;19143;59.322;14.502;2023-06-22T11:36:15;4.90;;;2.37;;
32790;SDS011;19143;59.322;14.502;2023-06-22T11:38:42;3.37;;;2.40;;
32790;SDS011;19143;59.322;14.502;2023-06-22T11:41:09;3.57;;;2.47;;
32790;SDS011;19143;59.322;14.502;2023-06-22T11:43:35;2.50;;;2.30;;
32790;SDS011;19143;59.322;14.502;2023-06-22T11:46:02;2.17;;;1.93;;
32790;SDS011;19143;59.322;14.502;2023-06-22T11:48:31;6.30;;;2.40;;
32790;SDS011;19143;59.322;14.502;2023-06-22T11:50:58;12.23;;;2.33;;
32790;SDS011;19143;59.322;14.502;2023-06-22T11:53:26;5.00;;;2.50;;
32790;SDS011;19143;59.322;14.502;2023-06-22T11:55:52;6.37;;;2.47;;
32790;SDS011;19143;59.322;14.502;2023-06-22T11:58:20;2.97;;;2.30;;
32790;SDS011;19143;59.322;14.502;2023-06-22T12:00:47;3.10;;;2.63;;
32790;SDS011;19143;59.322;14.502;2023-06-22T12:03:13;10.63;;;2.40;;
32790;SDS011;19143;59.322;14.502;2023-06-22T12:05:49;4.03;;;2.30;;
32790;SDS011;19143;59.322;14.502;2023-06-22T12:08:16;3.80;;;2.40;;
32790;SDS011;19143;59.322;14.502;2023-06-22T12:10:43;2.80;;;2.40;;
32790;SDS011;19143;59.322;14.502;2023-06-22T12:13:10;4.47;;;2.10;;
32790;SDS011;19143;59.322;14.502;2023-06-22T12:15:37;6.47;;;2.57;;
32790;SDS011;19143;59.322;14.502;2023-06-22T12:18:03;3.20;;;2.57;;
32790;SDS011;19143;59.322;14.502;2023-06-22T12:20:30;2.37;;;2.17;;
32790;SDS011;19143;59.322;14.502;2023-06-22T12:22:58;2.83;;;2.27;;
32790;SDS011;19143;59.322;14.502;2023-06-22T12:25:25;4.97;;;2.40;;
32790;SDS011;19143;59.322;14.502;2023-06-22T12:27:51;4.57;;;2.50;;
32790;SDS011;19143;59.322;14.502;2023-06-22T12:30:19;7.70;;;2.50;;
32790;SDS011;19143;59.322;14.502;2023-06-22T12:32:45;3.53;;;2.20;;
32790;SDS011;19143;59.322;14.502;2023-06-22T12:35:12;2.20;;;2.03;;
32790;SDS011;19143;59.322;14.502;2023-06-22T12:37:40;8.90;;;2.33;;
32790;SDS011;19143;59.322;14.502;2023-06-22T12:40:08;3.27;;;2.00;;
32790;SDS011;19143;59.322;14.502;2023-06-22T12:42:35;5.23;;;2.30;;
32790;SDS011;19143;59.322;14.502;2023-06-22T12:45:02;6.50;;;2.50;;
32790;SDS011;19143;59.322;14.502;2023-06-22T12:47:29;5.30;;;2.63;;
32790;SDS011;19143;59.322;14.502;2023-06-22T12:49:55;3.07;;;2.43;;
32790;SDS011;19143;59.322;14.502;2023-06-22T12:52:23;3.40;;;2.20;;
32790;SDS011;19143;59.322;14.502;2023-06-22T12:54:49;2.07;;;1.97;;
32790;SDS011;19143;59.322;14.502;2023-06-22T12:57:19;5.40;;;2.23;;
32790;SDS011;19143;59.322;14.502;2023-06-22T12:59:47;2.97;;;1.93;;
32790;SDS011;19143;59.322;14.502;2023-06-22T13:02:14;2.97;;;2.03;;
32790;SDS011;19143;59.322;14.502;2023-06-22T13:04:40;4.50;;;2.10;;
32790;SDS011;19143;59.322;14.502;2023-06-22T13:07:08;3.67;;;2.17;;
32790;SDS011;19143;59.322;14.502;2023-06-22T13:09:36;3.43;;;2.20;;
32790;SDS011;19143;59.322;14.502;2023-06-22T13:12:03;2.80;;;2.10;;
32790;SDS011;19143;59.322;14.502;2023-06-22T13:14:32;4.83;;;2.43;;
32790;SDS011;19143;59.322;14.502;2023-06-22T13:16:59;2.13;;;2.00;;
32790;SDS011;19143;59.322;14.502;2023-06-22T13:19:25;4.27;;;2.10;;
32790;SDS011;19143;59.322;14.502;2023-06-22T13:21:54;3.33;;;1.97;;
32790;SDS011;19143;59.322;14.502;2023-06-22T13:24:25;2.90;;;2.03;;
32790;SDS011;19143;59.322;14.502;2023-06-22T13:26:52;2.70;;;2.37;;
32790;SDS011;19143;59.322;14.502;2023-06-22T13:29:21;2.40;;;2.20;;
32790;SDS011;19143;59.322;14.502;2023-06-22T13:31:49;5.57;;;2.10;;
32790;SDS011;19143;59.322;14.502;2023-06-22T13:34:16;2.20;;;2.00;;
32790;SDS011;19143;59.322;14.502;2023-06-22T13:36:43;2.00;;;1.90;;
32790;SDS011;19143;59.322;14.502;2023-06-22T13:39:11;3.57;;;2.13;;
32790;SDS011;19143;59.322;14.502;2023-06-22T13:41:38;2.20;;;2.10;;
32790;SDS011;19143;59.322;14.502;2023-06-22T13:44:04;3.50;;;2.30;;
32790;SDS011;19143;59.322;14.502;2023-06-22T13:46:31;2.20;;;2.00;;
32790;SDS011;19143;59.322;14.502;2023-06-22T13:49:00;2.10;;;2.00;;
32790;SDS011;19143;59.322;14.502;2023-06-22T13:51:26;14.20;;;2.67;;
32790;SDS011;19143;59.322;14.502;2023-06-22T13:53:53;3.50;;;2.30;;
32790;SDS011;19143;59.322;14.502;2023-06-22T13:56:20;6.37;;;2.10;;
32790;SDS011;19143;59.322;14.502;2023-06-22T13:58:46;2.20;;;2.10;;
32790;SDS011;19143;59.322;14.502;2023-06-22T14:01:13;2.33;;;2.00;;
32790;SDS011;19143;59.322;14.502;2023-06-22T14:03:42;3.03;;;2.20;;
32790;SDS011;19143;59.322;14.502;2023-06-22T14:06:12;1.90;;;1.90;;
32790;SDS011;19143;59.322;14.502;2023-06-22T14:08:38;6.20;;;1.90;;
32790;SDS011;19143;59.322;14.502;2023-06-22T14:11:05;4.13;;;2.40;;
32790;SDS011;19143;59.322;14.502;2023-06-22T14:13:32;2.40;;;2.23;;
32790;SDS011;19143;59.322;14.502;2023-06-22T14:16:00;5.30;;;1.90;;
32790;SDS011;19143;59.322;14.502;2023-06-22T14:18:27;7.40;;;2.67;;
32790;SDS011;19143;59.322;14.502;2023-06-22T14:20:57;6.10;;;2.80;;
32790;SDS011;19143;59.322;14.502;2023-06-22T14:23:26;3.40;;;2.50;;
32790;SDS011;19143;59.322;14.502;2023-06-22T14:25:53;2.57;;;2.37;;
32790;SDS011;19143;59.322;14.502;2023-06-22T14:28:19;3.80;;;1.90;;
32790;SDS011;19143;59.322;14.502;2023-06-22T14:30:46;4.20;;;1.90;;
32790;SDS011;19143;59.322;14.502;2023-06-22T14:33:12;6.97;;;2.50;;
32790;SDS011;19143;59.322;14.502;2023-06-22T14:35:39;6.60;;;2.50;;